sensor_id;sensor_type;location;lat;lon;timestamp;pressure;altitude;pressure_sealevel;temperature;humidity
55610;BME280;41486;52.502;13.486;2023-05-22T00:01:23;101244.69;;;19.72;53.42
55610;BME280;41486;52.502;13.486;2023-05-22T00:03:56;101242.19;;;19.70;53.47
55610;BME280;41486;52.502;13.486;2023-05-22T00:06:24;101246.97;;;19.59;53.99
55610;BME280;41486;52.502;13.486;2023-05-22T00:08:53;101245.97;;;19.68;53.58
55610;BME280;41486;52.502;13.486;2023-05-22T00:11:23;101245.94;;;19.51;54.41
55610;BME280;41486;52.502;13.486;2023-05-22T00:13:51;101243.94;;;19.53;53.90
55610;BME280;41486;52.502;13.486;2023-05-22T00:16:22;101247.72;;;19.34;54.75
55610;BME280;41486;52.502;13.486;2023-05-22T00:18:50;101234.03;;;19.29;54.79
55610;BME280;41486;52.502;13.486;2023-05-22T00:21:18;101234.53;;;19.33;54.64
55610;BME280;41486;52.502;13.486;2023-05-22T00:23:47;101232.00;;;19.31;54.68
55610;BME280;41486;52.502;13.486;2023-05-22T00:26:15;101233.69;;;19.32;54.91
55610;BME280;41486;52.502;13.486;2023-05-22T00:28:47;101219.00;;;19.28;55.20
55610;BME280;41486;52.502;13.486;2023-05-22T00:31:15;101224.00;;;19.31;55.01
55610;BME280;41486;52.502;13.486;2023-05-22T00:33:43;101223.69;;;19.34;55.07
55610;BME280;41486;52.502;13.486;2023-05-22T00:36:12;101224.81;;;19.23;55.00
55610;BME280;41486;52.502;13.486;2023-05-22T00:38:40;101222.63;;;19.19;55.24
55610;BME280;41486;52.502;13.486;2023-05-22T00:41:12;101228.72;;;19.03;55.98
55610;BME280;41486;52.502;13.486;2023-05-22T00:43:40;101224.78;;;18.89;56.22
55610;BME280;41486;52.502;13.486;2023-05-22T00:46:12;101224.19;;;18.95;56.65
55610;BME280;41486;52.502;13.486;2023-05-22T00:48:40;101219.88;;;19.02;56.07
55610;BME280;41486;52.502;13.486;2023-05-22T00:51:08;101215.06;;;19.06;55.19
55610;BME280;41486;52.502;13.486;2023-05-22T00:53:37;101220.06;;;19.01;55.83
55610;BME280;41486;52.502;13.486;2023-05-22T00:56:05;101213.72;;;19.02;56.21
55610;BME280;41486;52.502;13.486;2023-05-22T00:58:34;101217.00;;;18.96;56.37
55610;BME280;41486;52.502;13.486;2023-05-22T01:01:03;101215.94;;;18.88;56.02
55610;BME280;41486;52.502;13.486;2023-05-22T01:03:35;101211.94;;;18.84;56.12
55610;BME280;41486;52.502;13.486;2023-05-22T01:06:03;101215.03;;;18.71;56.02
55610;BME280;41486;52.502;13.486;2023-05-22T01:08:34;101210.50;;;18.72;56.67
55610;BME280;41486;52.502;13.486;2023-05-22T01:11:06;101213.56;;;18.77;56.02
55610;BME280;41486;52.502;13.486;2023-05-22T01:13:43;101208.53;;;18.74;56.29
55610;BME280;41486;52.502;13.486;2023-05-22T01:16:18;101210.00;;;18.68;56.57
55610;BME280;41486;52.502;13.486;2023-05-22T01:18:57;101213.06;;;18.55;56.40
55610;BME280;41486;52.502;13.486;2023-05-22T01:21:33;101207.22;;;18.52;57.27
55610;BME280;41486;52.502;13.486;2023-05-22T01:24:33;101203.38;;;18.46;56.97
55610;BME280;41486;52.502;13.486;2023-05-22T01:27:22;101203.63;;;18.61;57.10
55610;BME280;41486;52.502;13.486;2023-05-22T01:30:19;101200.69;;;18.46;57.13
55610;BME280;41486;52.502;13.486;2023-05-22T01:32:51;101197.75;;;18.31;57.52
55610;BME280;41486;52.502;13.486;2023-05-22T01:35:22;101201.69;;;18.27;57.88
55610;BME280;41486;52.502;13.486;2023-05-22T01:37:50;101194.91;;;18.33;57.25
55610;BME280;41486;52.502;13.486;2023-05-22T01:40:19;101196.84;;;18.22;57.54
55610;BME280;41486;52.502;13.486;2023-05-22T01:42:48;101192.19;;;18.24;57.70
55610;BME280;41486;52.502;13.486;2023-05-22T01:45:16;101196.63;;;18.16;57.87
55610;BME280;41486;52.502;13.486;2023-05-22T01:47:44;101192.91;;;18.08;57.91
55610;BME280;41486;52.502;13.486;2023-05-22T01:50:14;101197.09;;;18.11;58.09
55610;BME280;41486;52.502;13.486;2023-05-22T01:52:48;101195.47;;;18.18;57.77
55610;BME280;41486;52.502;13.486;2023-05-22T01:55:24;101201.63;;;18.19;58.24
55610;BME280;41486;52.502;13.486;2023-05-22T01:58:03;101202.19;;;18.04;57.70
55610;BME280;41486;52.502;13.486;2023-05-22T02:00:34;101196.03;;;18.04;58.00
55610;BME280;41486;52.502;13.486;2023-05-22T02:03:06;101196.78;;;17.96;58.03
55610;BME280;41486;52.502;13.486;2023-05-22T02:05:37;101197.91;;;17.93;58.09
55610;BME280;41486;52.502;13.486;2023-05-22T02:08:07;101193.19;;;17.87;58.61
55610;BME280;41486;52.502;13.486;2023-05-22T02:10:39;101197.66;;;17.87;58.48
55610;BME280;41486;52.502;13.486;2023-05-22T02:13:09;101192.81;;;17.82;58.53
55610;BME280;41486;52.502;13.486;2023-05-22T02:15:37;101193.03;;;17.89;58.26
55610;BME280;41486;52.502;13.486;2023-05-22T02:18:09;101186.63;;;17.81;58.77
55610;BME280;41486;52.502;13.486;2023-05-22T02:20:40;101191.59;;;17.76;58.64
55610;BME280;41486;52.502;13.486;2023-05-22T02:23:08;101190.88;;;17.74;58.84
55610;BME280;41486;52.502;13.486;2023-05-22T02:25:36;101184.66;;;17.65;58.80
55610;BME280;41486;52.502;13.486;2023-05-22T02:28:04;101188.31;;;17.64;59.17
55610;BME280;41486;52.502;13.486;2023-05-22T02:30:32;101191.41;;;17.60;59.56
55610;BME280;41486;52.502;13.486;2023-05-22T02:33:00;101191.69;;;17.57;59.72
55610;BME280;41486;52.502;13.486;2023-05-22T02:35:31;101193.13;;;17.51;59.96
55610;BME280;41486;52.502;13.486;2023-05-22T02:38:01;101191.88;;;17.55;59.07
55610;BME280;41486;52.502;13.486;2023-05-22T02:40:30;101197.19;;;17.55;59.84
55610;BME280;41486;52.502;13.486;2023-05-22T02:42:58;101195.56;;;17.44;59.68
55610;BME280;41486;52.502;13.486;2023-05-22T02:45:27;101188.03;;;17.40;59.86
55610;BME280;41486;52.502;13.486;2023-05-22T02:47:55;101193.81;;;17.35;60.38
55610;BME280;41486;52.502;13.486;2023-05-22T02:50:23;101186.97;;;17.32;60.02
55610;BME280;41486;52.502;13.486;2023-05-22T02:52:51;101183.44;;;17.32;60.74
55610;BME280;41486;52.502;13.486;2023-05-22T02:55:21;101184.13;;;17.34;60.54
55610;BME280;41486;52.502;13.486;2023-05-22T02:57:49;101187.41;;;17.28;60.74
55610;BME280;41486;52.502;13.486;2023-05-22T03:00:18;101194.94;;;17.32;60.83
55610;BME280;41486;52.502;13.486;2023-05-22T03:02:48;101179.47;;;17.18;60.85
55610;BME280;41486;52.502;13.486;2023-05-22T03:05:16;101188.22;;;17.28;60.96
55610;BME280;41486;52.502;13.486;2023-05-22T03:07:44;101184.19;;;17.24;61.69
55610;BME280;41486;52.502;13.486;2023-05-22T03:10:14;101185.03;;;17.25;61.19
55610;BME280;41486;52.502;13.486;2023-05-22T03:12:44;101183.34;;;17.24;61.38
55610;BME280;41486;52.502;13.486;2023-05-22T03:15:12;101174.81;;;17.20;61.54
55610;BME280;41486;52.502;13.486;2023-05-22T03:17:43;101170.84;;;17.06;62.04
55610;BME280;41486;52.502;13.486;2023-05-22T03:20:11;101168.03;;;17.08;62.37
55610;BME280;41486;52.502;13.486;2023-05-22T03:22:43;101159.53;;;17.04;62.44
55610;BME280;41486;52.502;13.486;2023-05-22T03:25:11;101157.00;;;17.02;62.84
55610;BME280;41486;52.502;13.486;2023-05-22T03:27:40;101164.31;;;17.00;63.16
55610;BME280;41486;52.502;13.486;2023-05-22T03:30:10;101164.34;;;16.81;63.39
55610;BME280;41486;52.502;13.486;2023-05-22T03:32:43;101168.50;;;16.83;63.79
55610;BME280;41486;52.502;13.486;2023-05-22T03:35:11;101162.91;;;16.96;63.54
55610;BME280;41486;52.502;13.486;2023-05-22T03:37:45;101161.25;;;16.85;64.16
55610;BME280;41486;52.502;13.486;2023-05-22T03:40:14;101166.28;;;16.88;64.40
55610;BME280;41486;52.502;13.486;2023-05-22T03:42:42;101171.06;;;16.85;63.97
55610;BME280;41486;52.502;13.486;2023-05-22T03:45:12;101173.41;;;16.88;64.39
55610;BME280;41486;52.502;13.486;2023-05-22T03:47:40;101167.63;;;16.65;65.34
55610;BME280;41486;52.502;13.486;2023-05-22T03:50:09;101165.84;;;16.83;64.81
55610;BME280;41486;52.502;13.486;2023-05-22T03:52:37;101171.50;;;16.70;65.53
55610;BME280;41486;52.502;13.486;2023-05-22T03:55:06;101172.63;;;16.78;65.05
55610;BME280;41486;52.502;13.486;2023-05-22T03:57:35;101165.38;;;16.60;66.50
55610;BME280;41486;52.502;13.486;2023-05-22T04:00:04;101166.50;;;16.67;66.53
55610;BME280;41486;52.502;13.486;2023-05-22T04:02:42;101160.91;;;16.61;66.99
55610;BME280;41486;52.502;13.486;2023-05-22T04:05:13;101163.75;;;16.49;67.23
55610;BME280;41486;52.502;13.486;2023-05-22T04:07:42;101159.53;;;16.56;67.43
55610;BME280;41486;52.502;13.486;2023-05-22T04:10:11;101167.06;;;16.61;67.34
55610;BME280;41486;52.502;13.486;2023-05-22T04:12:39;101162.47;;;16.53;67.62
55610;BME280;41486;52.502;13.486;2023-05-22T04:15:07;101168.44;;;16.65;67.43
55610;BME280;41486;52.502;13.486;2023-05-22T04:17:38;101159.50;;;16.66;67.21
55610;BME280;41486;52.502;13.486;2023-05-22T04:20:10;101160.03;;;16.70;67.37
55610;BME280;41486;52.502;13.486;2023-05-22T04:22:38;101163.88;;;16.58;67.82
55610;BME280;41486;52.502;13.486;2023-05-22T04:25:08;101157.13;;;16.63;68.17
55610;BME280;41486;52.502;13.486;2023-05-22T04:27:36;101160.19;;;16.68;67.46
55610;BME280;41486;52.502;13.486;2023-05-22T04:30:06;101160.88;;;16.70;67.93
55610;BME280;41486;52.502;13.486;2023-05-22T04:32:34;101157.50;;;16.78;67.78
55610;BME280;41486;52.502;13.486;2023-05-22T04:35:04;101161.56;;;16.82;67.34
55610;BME280;41486;52.502;13.486;2023-05-22T04:37:34;101163.06;;;16.85;67.46
55610;BME280;41486;52.502;13.486;2023-05-22T04:40:04;101151.47;;;16.86;67.68
55610;BME280;41486;52.502;13.486;2023-05-22T04:42:33;101159.09;;;16.99;67.55
55610;BME280;41486;52.502;13.486;2023-05-22T04:45:03;101162.31;;;17.02;67.03
55610;BME280;41486;52.502;13.486;2023-05-22T04:47:31;101167.84;;;17.19;66.41
55610;BME280;41486;52.502;13.486;2023-05-22T04:50:05;101159.91;;;17.09;66.71
55610;BME280;41486;52.502;13.486;2023-05-22T04:52:35;101164.63;;;17.15;66.69
55610;BME280;41486;52.502;13.486;2023-05-22T04:55:04;101156.53;;;17.17;67.04
55610;BME280;41486;52.502;13.486;2023-05-22T04:57:32;101167.84;;;17.19;66.76
55610;BME280;41486;52.502;13.486;2023-05-22T05:00:02;101160.00;;;17.17;67.44
55610;BME280;41486;52.502;13.486;2023-05-22T05:02:33;101158.50;;;17.15;67.37
55610;BME280;41486;52.502;13.486;2023-05-22T05:05:01;101159.56;;;17.22;66.86
55610;BME280;41486;52.502;13.486;2023-05-22T05:07:30;101154.53;;;17.19;67.26
55610;BME280;41486;52.502;13.486;2023-05-22T05:10:00;101156.38;;;17.18;67.06
55610;BME280;41486;52.502;13.486;2023-05-22T05:12:28;101159.56;;;17.22;68.51
55610;BME280;41486;52.502;13.486;2023-05-22T05:14:56;101163.56;;;17.36;68.47
55610;BME280;41486;52.502;13.486;2023-05-22T05:17:24;101160.81;;;17.28;67.97
55610;BME280;41486;52.502;13.486;2023-05-22T05:19:52;101159.19;;;17.17;67.61
55610;BME280;41486;52.502;13.486;2023-05-22T05:22:21;101159.47;;;17.42;67.45
55610;BME280;41486;52.502;13.486;2023-05-22T05:24:49;101153.09;;;17.25;68.10
55610;BME280;41486;52.502;13.486;2023-05-22T05:27:19;101159.16;;;17.45;67.60
55610;BME280;41486;52.502;13.486;2023-05-22T05:29:47;101157.97;;;17.29;68.78
55610;BME280;41486;52.502;13.486;2023-05-22T05:32:24;101162.69;;;17.35;68.52
55610;BME280;41486;52.502;13.486;2023-05-22T05:35:01;101164.34;;;17.46;68.44
55610;BME280;41486;52.502;13.486;2023-05-22T05:37:41;101163.19;;;17.49;68.57
55610;BME280;41486;52.502;13.486;2023-05-22T05:40:12;101169.03;;;17.34;69.35
55610;BME280;41486;52.502;13.486;2023-05-22T05:42:47;101172.97;;;17.30;69.76
55610;BME280;41486;52.502;13.486;2023-05-22T05:45:20;101167.56;;;17.40;69.37
55610;BME280;41486;52.502;13.486;2023-05-22T05:47:48;101172.44;;;17.45;69.37
55610;BME280;41486;52.502;13.486;2023-05-22T05:50:17;101173.53;;;17.52;69.48
55610;BME280;41486;52.502;13.486;2023-05-22T05:52:46;101178.03;;;17.52;70.10
55610;BME280;41486;52.502;13.486;2023-05-22T07:03:29;101159.47;;;19.36;64.79
55610;BME280;41486;52.502;13.486;2023-05-22T07:06:20;101156.00;;;19.44;65.40
55610;BME280;41486;52.502;13.486;2023-05-22T07:08:48;101160.19;;;19.46;64.79
55610;BME280;41486;52.502;13.486;2023-05-22T07:11:16;101161.19;;;19.53;64.18
55610;BME280;41486;52.502;13.486;2023-05-22T07:13:44;101159.72;;;19.67;63.82
55610;BME280;41486;52.502;13.486;2023-05-22T07:16:13;101152.88;;;19.65;64.45
55610;BME280;41486;52.502;13.486;2023-05-22T07:18:43;101161.56;;;19.59;64.28
55610;BME280;41486;52.502;13.486;2023-05-22T07:21:12;101156.91;;;19.77;63.63
55610;BME280;41486;52.502;13.486;2023-05-22T07:23:41;101165.44;;;19.89;62.81
55610;BME280;41486;52.502;13.486;2023-05-22T07:26:09;101164.28;;;19.92;63.39
55610;BME280;41486;52.502;13.486;2023-05-22T07:28:45;101164.94;;;20.02;63.79
55610;BME280;41486;52.502;13.486;2023-05-22T07:31:13;101162.59;;;20.15;62.79
55610;BME280;41486;52.502;13.486;2023-05-22T07:33:44;101160.59;;;20.26;63.58
55610;BME280;41486;52.502;13.486;2023-05-22T07:36:12;101160.78;;;20.24;62.52
55610;BME280;41486;52.502;13.486;2023-05-22T07:38:40;101153.72;;;20.48;62.72
55610;BME280;41486;52.502;13.486;2023-05-22T07:41:09;101156.19;;;20.58;61.83
55610;BME280;41486;52.502;13.486;2023-05-22T07:43:37;101142.84;;;20.58;61.38
55610;BME280;41486;52.502;13.486;2023-05-22T07:46:09;101150.31;;;20.79;61.32
55610;BME280;41486;52.502;13.486;2023-05-22T07:48:49;101150.03;;;20.57;60.39
55610;BME280;41486;52.502;13.486;2023-05-22T07:51:18;101154.03;;;20.61;60.26
55610;BME280;41486;52.502;13.486;2023-05-22T07:53:49;101152.00;;;20.72;61.09
55610;BME280;41486;52.502;13.486;2023-05-22T07:56:17;101153.78;;;20.88;60.67
55610;BME280;41486;52.502;13.486;2023-05-22T07:58:47;101146.41;;;20.98;60.07
55610;BME280;41486;52.502;13.486;2023-05-22T08:01:18;101150.03;;;21.05;59.73
55610;BME280;41486;52.502;13.486;2023-05-22T08:03:46;101152.31;;;21.25;58.80
55610;BME280;41486;52.502;13.486;2023-05-22T08:06:16;101150.41;;;21.34;58.82
55610;BME280;41486;52.502;13.486;2023-05-22T08:08:44;101159.00;;;21.52;58.32
55610;BME280;41486;52.502;13.486;2023-05-22T08:11:12;101152.63;;;21.62;58.19
55610;BME280;41486;52.502;13.486;2023-05-22T08:13:40;101149.97;;;21.77;57.61
55610;BME280;41486;52.502;13.486;2023-05-22T08:16:09;101148.72;;;21.87;56.81
55610;BME280;41486;52.502;13.486;2023-05-22T08:18:37;101151.13;;;21.82;56.40
55610;BME280;41486;52.502;13.486;2023-05-22T08:21:05;101151.91;;;21.91;55.50
55610;BME280;41486;52.502;13.486;2023-05-22T08:23:34;101149.44;;;22.04;55.64
55610;BME280;41486;52.502;13.486;2023-05-22T08:26:05;101140.66;;;22.11;55.66
55610;BME280;41486;52.502;13.486;2023-05-22T08:28:34;101142.63;;;22.17;55.61
55610;BME280;41486;52.502;13.486;2023-05-22T08:31:02;101142.59;;;22.40;55.57
55610;BME280;41486;52.502;13.486;2023-05-22T08:33:30;101144.16;;;22.64;54.39
55610;BME280;41486;52.502;13.486;2023-05-22T08:35:58;101140.28;;;22.82;53.12
55610;BME280;41486;52.502;13.486;2023-05-22T08:38:26;101134.06;;;22.96;52.41
55610;BME280;41486;52.502;13.486;2023-05-22T08:40:56;101129.25;;;22.92;52.32
55610;BME280;41486;52.502;13.486;2023-05-22T08:43:30;101137.88;;;22.87;52.41
55610;BME280;41486;52.502;13.486;2023-05-22T08:46:14;101130.09;;;22.92;51.48
55610;BME280;41486;52.502;13.486;2023-05-22T08:48:43;101128.78;;;22.88;51.20
55610;BME280;41486;52.502;13.486;2023-05-22T08:51:17;101132.69;;;22.85;51.97
55610;BME280;41486;52.502;13.486;2023-05-22T08:53:47;101135.81;;;22.89;52.36
55610;BME280;41486;52.502;13.486;2023-05-22T08:56:19;101128.78;;;22.88;52.76
55610;BME280;41486;52.502;13.486;2023-05-22T08:58:48;101123.63;;;23.02;51.53
55610;BME280;41486;52.502;13.486;2023-05-22T09:01:18;101119.91;;;23.03;50.99
55610;BME280;41486;52.502;13.486;2023-05-22T09:03:46;101115.19;;;23.41;51.13
55610;BME280;41486;52.502;13.486;2023-05-22T09:06:17;101113.59;;;23.69;50.60
55610;BME280;41486;52.502;13.486;2023-05-22T09:08:45;101103.84;;;23.68;48.85
55610;BME280;41486;52.502;13.486;2023-05-22T09:11:15;101110.13;;;23.53;49.15
55610;BME280;41486;52.502;13.486;2023-05-22T09:13:45;101112.69;;;23.61;49.37
55610;BME280;41486;52.502;13.486;2023-05-22T09:16:15;101105.72;;;23.67;48.86
55610;BME280;41486;52.502;13.486;2023-05-22T09:18:43;101107.69;;;23.80;49.11
55610;BME280;41486;52.502;13.486;2023-05-22T09:21:12;101102.72;;;23.99;48.81
55610;BME280;41486;52.502;13.486;2023-05-22T09:23:58;101100.34;;;24.17;47.98
55610;BME280;41486;52.502;13.486;2023-05-22T09:26:26;101103.56;;;24.34;47.04
55610;BME280;41486;52.502;13.486;2023-05-22T09:28:58;101099.47;;;24.10;46.58
55610;BME280;41486;52.502;13.486;2023-05-22T09:31:27;101097.03;;;24.15;47.40
55610;BME280;41486;52.502;13.486;2023-05-22T09:33:56;101093.09;;;24.53;46.79
55610;BME280;41486;52.502;13.486;2023-05-22T09:36:29;101096.06;;;24.65;45.64
55610;BME280;41486;52.502;13.486;2023-05-22T09:38:59;101092.13;;;24.61;44.94
55610;BME280;41486;52.502;13.486;2023-05-22T09:41:27;101094.66;;;24.34;45.62
55610;BME280;41486;52.502;13.486;2023-05-22T09:43:57;101091.47;;;24.58;45.55
55610;BME280;41486;52.502;13.486;2023-05-22T09:46:28;101091.28;;;24.60;45.70
55610;BME280;41486;52.502;13.486;2023-05-22T09:48:56;101090.41;;;24.53;45.57
55610;BME280;41486;52.502;13.486;2023-05-22T09:51:24;101093.19;;;24.31;45.67
55610;BME280;41486;52.502;13.486;2023-05-22T09:53:57;101090.03;;;24.21;46.03
55610;BME280;41486;52.502;13.486;2023-05-22T09:56:30;101091.09;;;24.26;45.97
55610;BME280;41486;52.502;13.486;2023-05-22T09:59:07;101088.22;;;24.28;44.94
55610;BME280;41486;52.502;13.486;2023-05-22T10:01:37;101088.97;;;24.50;45.42
55610;BME280;41486;52.502;13.486;2023-05-22T10:04:07;101087.25;;;24.78;44.38
55610;BME280;41486;52.502;13.486;2023-05-22T10:06:41;101083.81;;;24.97;44.76
55610;BME280;41486;52.502;13.486;2023-05-22T10:09:14;101079.09;;;25.13;43.58
55610;BME280;41486;52.502;13.486;2023-05-22T10:11:45;101078.88;;;25.08;43.99
55610;BME280;41486;52.502;13.486;2023-05-22T10:14:15;101075.13;;;25.09;44.07
55610;BME280;41486;52.502;13.486;2023-05-22T10:16:44;101074.94;;;25.10;43.77
55610;BME280;41486;52.502;13.486;2023-05-22T10:19:13;101077.22;;;25.07;43.65
55610;BME280;41486;52.502;13.486;2023-05-22T10:21:41;101073.31;;;25.23;43.31
55610;BME280;41486;52.502;13.486;2023-05-22T10:24:11;101080.16;;;25.32;43.35
55610;BME280;41486;52.502;13.486;2023-05-22T10:26:40;101069.03;;;25.48;41.70
55610;BME280;41486;52.502;13.486;2023-05-22T10:29:10;101073.16;;;25.44;42.17
55610;BME280;41486;52.502;13.486;2023-05-22T10:31:50;101070.28;;;25.66;41.77
55610;BME280;41486;52.502;13.486;2023-05-22T10:34:30;101067.78;;;25.71;41.58
55610;BME280;41486;52.502;13.486;2023-05-22T10:37:04;101068.59;;;25.92;41.07
55610;BME280;41486;52.502;13.486;2023-05-22T10:39:53;101058.22;;;25.89;40.41
55610;BME280;41486;52.502;13.486;2023-05-22T10:42:29;101055.34;;;25.77;40.51
55610;BME280;41486;52.502;13.486;2023-05-22T10:44:59;101057.00;;;25.58;40.68
55610;BME280;41486;52.502;13.486;2023-05-22T10:47:31;101045.56;;;26.03;40.00
55610;BME280;41486;52.502;13.486;2023-05-22T10:50:06;101039.78;;;25.92;39.53
55610;BME280;41486;52.502;13.486;2023-05-22T10:52:34;101047.63;;;26.27;39.26
55610;BME280;41486;52.502;13.486;2023-05-22T10:55:05;101042.28;;;25.67;39.61
55610;BME280;41486;52.502;13.486;2023-05-22T10:57:36;101028.00;;;25.60;39.75
55610;BME280;41486;52.502;13.486;2023-05-22T11:00:06;101037.75;;;25.54;40.14
55610;BME280;41486;52.502;13.486;2023-05-22T11:02:41;101027.38;;;25.58;39.49
55610;BME280;41486;52.502;13.486;2023-05-22T11:05:32;101027.50;;;26.03;38.32
55610;BME280;41486;52.502;13.486;2023-05-22T11:08:11;101025.81;;;26.36;37.43
55610;BME280;41486;52.502;13.486;2023-05-22T11:11:09;101031.19;;;26.88;36.27
55610;BME280;41486;52.502;13.486;2023-05-22T11:13:38;101037.84;;;27.49;35.10
55610;BME280;41486;52.502;13.486;2023-05-22T11:16:08;101022.66;;;27.74;33.85
55610;BME280;41486;52.502;13.486;2023-05-22T11:18:38;101024.03;;;27.32;35.03
55610;BME280;41486;52.502;13.486;2023-05-22T11:21:09;101028.16;;;27.85;34.00
55610;BME280;41486;52.502;13.486;2023-05-22T11:23:39;101028.03;;;26.45;35.62
55610;BME280;41486;52.502;13.486;2023-05-22T11:26:18;101024.72;;;26.43;35.18
55610;BME280;41486;52.502;13.486;2023-05-22T11:28:49;101025.13;;;26.40;35.30
55610;BME280;41486;52.502;13.486;2023-05-22T11:31:19;101020.91;;;27.35;33.84
55610;BME280;41486;52.502;13.486;2023-05-22T11:33:52;101015.00;;;27.20;34.72
55610;BME280;41486;52.502;13.486;2023-05-22T11:36:21;101012.03;;;28.34;33.34
55610;BME280;41486;52.502;13.486;2023-05-22T11:38:49;101022.03;;;27.21;34.15
55610;BME280;41486;52.502;13.486;2023-05-22T11:41:17;101016.28;;;27.11;34.59
55610;BME280;41486;52.502;13.486;2023-05-22T11:43:45;101007.81;;;27.83;33.31
55610;BME280;41486;52.502;13.486;2023-05-22T11:46:13;101008.59;;;28.09;32.91
55610;BME280;41486;52.502;13.486;2023-05-22T11:48:41;101009.56;;;28.52;32.16
55610;BME280;41486;52.502;13.486;2023-05-22T11:51:11;101005.78;;;29.14;31.48
55610;BME280;41486;52.502;13.486;2023-05-22T11:53:40;101001.81;;;28.18;32.13
55610;BME280;41486;52.502;13.486;2023-05-22T11:56:08;101004.56;;;29.09;30.87
55610;BME280;41486;52.502;13.486;2023-05-22T11:58:36;100996.72;;;28.28;31.62
55610;BME280;41486;52.502;13.486;2023-05-22T12:01:04;100994.66;;;27.43;32.14
55610;BME280;41486;52.502;13.486;2023-05-22T12:03:34;101000.94;;;27.62;32.51
55610;BME280;41486;52.502;13.486;2023-05-22T12:06:03;100998.84;;;27.64;31.93
55610;BME280;41486;52.502;13.486;2023-05-22T12:08:33;100998.75;;;27.52;32.04
55610;BME280;41486;52.502;13.486;2023-05-22T12:11:03;100994.38;;;28.51;31.46
55610;BME280;41486;52.502;13.486;2023-05-22T12:13:32;100994.28;;;29.54;30.54
55610;BME280;41486;52.502;13.486;2023-05-22T12:16:00;100991.22;;;28.84;30.34
55610;BME280;41486;52.502;13.486;2023-05-22T12:18:34;100990.50;;;28.58;31.09
55610;BME280;41486;52.502;13.486;2023-05-22T12:21:04;100982.88;;;28.37;30.86
55610;BME280;41486;52.502;13.486;2023-05-22T12:23:34;100987.41;;;27.11;32.59
55610;BME280;41486;52.502;13.486;2023-05-22T12:26:07;100985.06;;;27.47;32.20
55610;BME280;41486;52.502;13.486;2023-05-22T12:28:37;100981.97;;;26.86;33.11
55610;BME280;41486;52.502;13.486;2023-05-22T12:31:05;100982.59;;;27.38;32.49
55610;BME280;41486;52.502;13.486;2023-05-22T12:33:33;100982.94;;;27.74;32.16
55610;BME280;41486;52.502;13.486;2023-05-22T12:36:06;100969.34;;;27.81;31.81
55610;BME280;41486;52.502;13.486;2023-05-22T12:38:36;100979.53;;;27.35;32.43
55610;BME280;41486;52.502;13.486;2023-05-22T12:41:05;100968.13;;;27.77;32.05
55610;BME280;41486;52.502;13.486;2023-05-22T12:43:33;100981.19;;;27.36;32.18
55610;BME280;41486;52.502;13.486;2023-05-22T12:46:01;100975.19;;;27.02;31.85
55610;BME280;41486;52.502;13.486;2023-05-22T12:48:29;100973.16;;;27.54;31.80
55610;BME280;41486;52.502;13.486;2023-05-22T12:50:57;100973.41;;;27.90;31.17
55610;BME280;41486;52.502;13.486;2023-05-22T12:53:25;100979.22;;;28.92;29.66
55610;BME280;41486;52.502;13.486;2023-05-22T12:55:55;100968.44;;;29.27;28.32
55610;BME280;41486;52.502;13.486;2023-05-22T12:58:23;100972.09;;;29.57;28.52
55610;BME280;41486;52.502;13.486;2023-05-22T13:00:51;100979.34;;;31.93;25.72
55610;BME280;41486;52.502;13.486;2023-05-22T13:03:19;100974.75;;;31.93;25.45
55610;BME280;41486;52.502;13.486;2023-05-22T13:05:48;100969.25;;;30.52;26.31
55610;BME280;41486;52.502;13.486;2023-05-22T13:08:16;100971.78;;;31.73;25.27
55610;BME280;41486;52.502;13.486;2023-05-22T13:10:44;100969.03;;;31.95;24.94
55610;BME280;41486;52.502;13.486;2023-05-22T13:13:14;100976.41;;;31.94;25.23
55610;BME280;41486;52.502;13.486;2023-05-22T13:15:45;100969.22;;;30.81;25.74
55610;BME280;41486;52.502;13.486;2023-05-22T13:18:13;100969.78;;;31.51;25.41
55610;BME280;41486;52.502;13.486;2023-05-22T13:20:42;100962.66;;;30.65;25.43
55610;BME280;41486;52.502;13.486;2023-05-22T13:23:10;100958.50;;;30.16;26.13
55610;BME280;41486;52.502;13.486;2023-05-22T13:25:38;100960.72;;;30.48;26.17
55610;BME280;41486;52.502;13.486;2023-05-22T13:28:06;100961.59;;;30.66;26.07
55610;BME280;41486;52.502;13.486;2023-05-22T13:30:36;100953.97;;;29.57;26.93
55610;BME280;41486;52.502;13.486;2023-05-22T13:33:04;100947.91;;;29.08;26.87
55610;BME280;41486;52.502;13.486;2023-05-22T13:35:33;100955.94;;;29.98;26.41
55610;BME280;41486;52.502;13.486;2023-05-22T13:38:01;100959.13;;;29.71;26.53
55610;BME280;41486;52.502;13.486;2023-05-22T13:40:29;100949.72;;;29.50;26.42
55610;BME280;41486;52.502;13.486;2023-05-22T13:42:57;100954.31;;;29.73;26.20
55610;BME280;41486;52.502;13.486;2023-05-22T13:45:28;100947.03;;;28.72;26.82
55610;BME280;41486;52.502;13.486;2023-05-22T13:47:58;100939.78;;;29.08;27.20
55610;BME280;41486;52.502;13.486;2023-05-22T13:50:26;100938.03;;;29.14;26.76
55610;BME280;41486;52.502;13.486;2023-05-22T13:52:54;100936.94;;;28.91;27.23
55610;BME280;41486;52.502;13.486;2023-05-22T13:55:22;100937.44;;;28.69;27.16
55610;BME280;41486;52.502;13.486;2023-05-22T13:57:50;100934.31;;;28.54;27.61
55610;BME280;41486;52.502;13.486;2023-05-22T14:00:19;100932.00;;;29.11;27.00
55610;BME280;41486;52.502;13.486;2023-05-22T14:02:47;100935.06;;;29.15;27.08
55610;BME280;41486;52.502;13.486;2023-05-22T14:05:20;100922.38;;;29.16;26.72